sensor_id;sensor_type;location;lat;lon;timestamp;P1;durP1;ratioP1;P2;durP2;ratioP2
21170;SDS011;10743;52.160;20.910;2023-04-03T00:01:19;3.50;;;2.03;;
21170;SDS011;10743;52.160;20.910;2023-04-03T00:03:46;3.23;;;1.80;;
21170;SDS011;10743;52.160;20.910;2023-04-03T00:06:14;6.37;;;1.87;;
21170;SDS011;10743;52.160;20.910;2023-04-03T00:08:41;91.30;;;56.80;;
21170;SDS011;10743;52.160;20.910;2023-04-03T00:11:08;113.77;;;54.37;;
21170;SDS011;10743;52.160;20.910;2023-04-03T00:13:36;146.43;;;59.87;;
21170;SDS011;10743;52.160;20.910;2023-04-03T00:16:04;123.30;;;48.30;;
21170;SDS011;10743;52.160;20.910;2023-04-03T00:18:33;116.00;;;45.70;;
21170;SDS011;10743;52.160;20.910;2023-04-03T00:21:01;102.83;;;41.60;;
21170;SDS011;10743;52.160;20.910;2023-04-03T00:23:29;116.63;;;45.37;;
21170;SDS011;10743;52.160;20.910;2023-04-03T00:25:56;123.97;;;50.17;;
21170;SDS011;10743;52.160;20.910;2023-04-03T00:28:23;38.33;;;21.00;;
21170;SDS011;10743;52.160;20.910;2023-04-03T00:30:50;26.50;;;15.20;;
21170;SDS011;10743;52.160;20.910;2023-04-03T00:33:18;39.63;;;21.37;;
21170;SDS011;10743;52.160;20.910;2023-04-03T00:35:48;57.83;;;32.73;;
21170;SDS011;10743;52.160;20.910;2023-04-03T00:38:16;68.30;;;30.57;;
21170;SDS011;10743;52.160;20.910;2023-04-03T00:40:44;49.47;;;26.00;;
21170;SDS011;10743;52.160;20.910;2023-04-03T00:43:15;68.50;;;30.37;;
21170;SDS011;10743;52.160;20.910;2023-04-03T00:45:48;87.30;;;39.73;;
21170;SDS011;10743;52.160;20.910;2023-04-03T00:48:20;97.87;;;44.17;;
21170;SDS011;10743;52.160;20.910;2023-04-03T00:51:07;126.30;;;48.50;;
21170;SDS011;10743;52.160;20.910;2023-04-03T00:53:40;126.10;;;48.50;;
21170;SDS011;10743;52.160;20.910;2023-04-03T00:56:15;103.67;;;41.57;;
21170;SDS011;10743;52.160;20.910;2023-04-03T00:58:49;109.23;;;43.43;;
21170;SDS011;10743;52.160;20.910;2023-04-03T01:01:23;155.20;;;68.97;;
21170;SDS011;10743;52.160;20.910;2023-04-03T01:03:53;133.57;;;52.33;;
21170;SDS011;10743;52.160;20.910;2023-04-03T01:06:26;119.83;;;47.97;;
21170;SDS011;10743;52.160;20.910;2023-04-03T01:09:04;130.60;;;55.17;;
21170;SDS011;10743;52.160;20.910;2023-04-03T01:11:32;65.33;;;33.87;;
21170;SDS011;10743;52.160;20.910;2023-04-03T01:14:00;51.43;;;24.63;;
21170;SDS011;10743;52.160;20.910;2023-04-03T01:16:29;4.70;;;1.93;;
21170;SDS011;10743;52.160;20.910;2023-04-03T01:18:58;8.93;;;2.97;;
21170;SDS011;10743;52.160;20.910;2023-04-03T01:24:22;6.80;;;2.00;;
21170;SDS011;10743;52.160;20.910;2023-04-03T01:27:07;8.97;;;4.27;;
21170;SDS011;10743;52.160;20.910;2023-04-03T01:29:36;7.17;;;2.00;;
21170;SDS011;10743;52.160;20.910;2023-04-03T01:32:04;6.23;;;2.17;;
21170;SDS011;10743;52.160;20.910;2023-04-03T01:34:31;5.20;;;1.80;;
21170;SDS011;10743;52.160;20.910;2023-04-03T01:36:59;79.70;;;42.77;;
21170;SDS011;10743;52.160;20.910;2023-04-03T01:39:26;80.90;;;35.03;;
21170;SDS011;10743;52.160;20.910;2023-04-03T01:41:54;27.97;;;13.87;;
21170;SDS011;10743;52.160;20.910;2023-04-03T01:44:29;104.40;;;43.90;;
21170;SDS011;10743;52.160;20.910;2023-04-03T01:46:56;35.30;;;20.27;;
21170;SDS011;10743;52.160;20.910;2023-04-03T01:49:26;29.73;;;19.47;;
21170;SDS011;10743;52.160;20.910;2023-04-03T01:51:54;53.20;;;27.37;;
21170;SDS011;10743;52.160;20.910;2023-04-03T01:54:21;98.50;;;50.27;;
21170;SDS011;10743;52.160;20.910;2023-04-03T01:56:48;84.10;;;36.03;;
21170;SDS011;10743;52.160;20.910;2023-04-03T01:59:17;74.27;;;34.20;;
21170;SDS011;10743;52.160;20.910;2023-04-03T02:01:45;105.57;;;40.50;;
21170;SDS011;10743;52.160;20.910;2023-04-03T02:04:12;68.63;;;33.53;;
21170;SDS011;10743;52.160;20.910;2023-04-03T02:06:40;38.67;;;21.33;;
21170;SDS011;10743;52.160;20.910;2023-04-03T02:09:07;7.50;;;2.03;;
21170;SDS011;10743;52.160;20.910;2023-04-03T02:11:34;32.27;;;14.37;;
21170;SDS011;10743;52.160;20.910;2023-04-03T02:14:01;7.27;;;2.00;;
21170;SDS011;10743;52.160;20.910;2023-04-03T02:16:29;29.00;;;19.20;;
21170;SDS011;10743;52.160;20.910;2023-04-03T02:18:57;21.53;;;16.83;;
21170;SDS011;10743;52.160;20.910;2023-04-03T02:21:24;34.80;;;25.53;;
21170;SDS011;10743;52.160;20.910;2023-04-03T02:23:52;2.47;;;1.53;;
21170;SDS011;10743;52.160;20.910;2023-04-03T02:26:19;24.23;;;17.73;;
21170;SDS011;10743;52.160;20.910;2023-04-03T02:28:47;51.20;;;31.23;;
21170;SDS011;10743;52.160;20.910;2023-04-03T02:31:14;53.80;;;32.27;;
21170;SDS011;10743;52.160;20.910;2023-04-03T02:33:43;4.47;;;1.90;;
21170;SDS011;10743;52.160;20.910;2023-04-03T02:36:13;36.30;;;19.20;;
21170;SDS011;10743;52.160;20.910;2023-04-03T02:38:43;30.00;;;14.93;;
21170;SDS011;10743;52.160;20.910;2023-04-03T02:41:12;7.07;;;2.13;;
21170;SDS011;10743;52.160;20.910;2023-04-03T02:43:39;8.67;;;4.03;;
21170;SDS011;10743;52.160;20.910;2023-04-03T02:46:06;14.70;;;10.17;;
21170;SDS011;10743;52.160;20.910;2023-04-03T02:48:34;28.13;;;16.83;;
21170;SDS011;10743;52.160;20.910;2023-04-03T02:51:02;30.83;;;17.17;;
21170;SDS011;10743;52.160;20.910;2023-04-03T02:53:29;17.63;;;10.93;;
21170;SDS011;10743;52.160;20.910;2023-04-03T02:56:00;92.23;;;39.93;;
21170;SDS011;10743;52.160;20.910;2023-04-03T02:58:27;55.03;;;28.13;;
21170;SDS011;10743;52.160;20.910;2023-04-03T03:00:56;26.67;;;16.30;;
21170;SDS011;10743;52.160;20.910;2023-04-03T03:03:24;9.03;;;2.20;;
21170;SDS011;10743;52.160;20.910;2023-04-03T03:06:00;5.40;;;1.60;;
21170;SDS011;10743;52.160;20.910;2023-04-03T03:08:32;48.90;;;24.37;;
21170;SDS011;10743;52.160;20.910;2023-04-03T03:11:00;94.17;;;39.90;;
21170;SDS011;10743;52.160;20.910;2023-04-03T03:13:28;75.87;;;35.70;;
21170;SDS011;10743;52.160;20.910;2023-04-03T03:15:55;64.60;;;31.70;;
21170;SDS011;10743;52.160;20.910;2023-04-03T03:18:23;60.63;;;30.23;;
21170;SDS011;10743;52.160;20.910;2023-04-03T03:20:54;49.47;;;24.83;;
21170;SDS011;10743;52.160;20.910;2023-04-03T03:23:23;19.23;;;12.80;;
21170;SDS011;10743;52.160;20.910;2023-04-03T03:25:56;61.10;;;31.10;;
21170;SDS011;10743;52.160;20.910;2023-04-03T03:28:29;67.77;;;32.30;;
21170;SDS011;10743;52.160;20.910;2023-04-03T03:30:57;45.47;;;25.47;;
21170;SDS011;10743;52.160;20.910;2023-04-03T03:33:25;38.97;;;23.37;;
21170;SDS011;10743;52.160;20.910;2023-04-03T03:35:53;41.27;;;24.97;;
21170;SDS011;10743;52.160;20.910;2023-04-03T03:38:21;44.10;;;25.60;;
21170;SDS011;10743;52.160;20.910;2023-04-03T03:40:49;33.57;;;19.80;;
21170;SDS011;10743;52.160;20.910;2023-04-03T03:43:19;61.90;;;30.57;;
21170;SDS011;10743;52.160;20.910;2023-04-03T03:45:51;46.73;;;26.60;;
21170;SDS011;10743;52.160;20.910;2023-04-03T03:48:21;42.07;;;25.23;;
21170;SDS011;10743;52.160;20.910;2023-04-03T03:50:48;44.67;;;26.70;;
21170;SDS011;10743;52.160;20.910;2023-04-03T03:53:18;54.97;;;29.00;;
21170;SDS011;10743;52.160;20.910;2023-04-03T03:55:47;27.13;;;18.20;;
21170;SDS011;10743;52.160;20.910;2023-04-03T03:58:16;27.57;;;19.80;;
21170;SDS011;10743;52.160;20.910;2023-04-03T04:00:43;34.67;;;22.77;;
21170;SDS011;10743;52.160;20.910;2023-04-03T04:03:10;22.80;;;15.60;;
21170;SDS011;10743;52.160;20.910;2023-04-03T04:05:38;61.23;;;31.37;;
21170;SDS011;10743;52.160;20.910;2023-04-03T04:08:05;60.13;;;28.63;;
21170;SDS011;10743;52.160;20.910;2023-04-03T04:10:33;63.87;;;31.67;;
21170;SDS011;10743;52.160;20.910;2023-04-03T04:13:01;63.77;;;31.33;;
21170;SDS011;10743;52.160;20.910;2023-04-03T04:15:28;67.83;;;29.87;;
21170;SDS011;10743;52.160;20.910;2023-04-03T04:17:56;45.77;;;26.10;;
21170;SDS011;10743;52.160;20.910;2023-04-03T04:20:24;63.67;;;30.37;;
21170;SDS011;10743;52.160;20.910;2023-04-03T04:22:52;54.60;;;28.37;;
21170;SDS011;10743;52.160;20.910;2023-04-03T04:25:20;66.73;;;31.97;;
21170;SDS011;10743;52.160;20.910;2023-04-03T04:27:48;13.80;;;3.37;;
21170;SDS011;10743;52.160;20.910;2023-04-03T04:30:16;6.93;;;2.27;;
21170;SDS011;10743;52.160;20.910;2023-04-03T04:32:46;7.87;;;2.40;;
21170;SDS011;10743;52.160;20.910;2023-04-03T04:35:13;36.53;;;24.77;;
21170;SDS011;10743;52.160;20.910;2023-04-03T04:37:44;46.73;;;31.37;;
21170;SDS011;10743;52.160;20.910;2023-04-03T04:40:12;78.80;;;34.77;;
21170;SDS011;10743;52.160;20.910;2023-04-03T04:42:39;84.50;;;39.37;;
21170;SDS011;10743;52.160;20.910;2023-04-03T04:45:06;110.40;;;42.67;;
21170;SDS011;10743;52.160;20.910;2023-04-03T04:47:35;99.03;;;40.50;;
21170;SDS011;10743;52.160;20.910;2023-04-03T04:50:03;104.13;;;41.43;;
21170;SDS011;10743;52.160;20.910;2023-04-03T04:52:31;76.90;;;35.43;;
21170;SDS011;10743;52.160;20.910;2023-04-03T04:54:59;85.37;;;36.93;;
21170;SDS011;10743;52.160;20.910;2023-04-03T04:57:26;86.00;;;36.67;;
21170;SDS011;10743;52.160;20.910;2023-04-03T04:59:56;34.10;;;14.30;;
21170;SDS011;10743;52.160;20.910;2023-04-03T05:02:23;7.93;;;2.30;;
21170;SDS011;10743;52.160;20.910;2023-04-03T05:04:50;7.90;;;2.20;;
21170;SDS011;10743;52.160;20.910;2023-04-03T05:07:23;7.20;;;2.30;;
21170;SDS011;10743;52.160;20.910;2023-04-03T05:09:50;9.30;;;2.50;;
21170;SDS011;10743;52.160;20.910;2023-04-03T05:12:17;6.40;;;2.13;;
21170;SDS011;10743;52.160;20.910;2023-04-03T05:14:51;8.33;;;2.57;;
21170;SDS011;10743;52.160;20.910;2023-04-03T05:17:19;13.90;;;2.90;;
21170;SDS011;10743;52.160;20.910;2023-04-03T05:19:50;8.63;;;2.50;;
21170;SDS011;10743;52.160;20.910;2023-04-03T05:22:19;10.57;;;2.87;;
21170;SDS011;10743;52.160;20.910;2023-04-03T05:24:46;9.47;;;2.73;;
21170;SDS011;10743;52.160;20.910;2023-04-03T05:27:14;9.90;;;2.43;;
21170;SDS011;10743;52.160;20.910;2023-04-03T05:29:47;9.10;;;2.77;;
21170;SDS011;10743;52.160;20.910;2023-04-03T05:32:19;11.43;;;2.63;;
21170;SDS011;10743;52.160;20.910;2023-04-03T05:34:51;10.07;;;2.50;;
21170;SDS011;10743;52.160;20.910;2023-04-03T05:37:19;7.93;;;2.40;;
21170;SDS011;10743;52.160;20.910;2023-04-03T05:39:48;9.77;;;2.50;;
21170;SDS011;10743;52.160;20.910;2023-04-03T05:42:15;8.57;;;2.23;;
21170;SDS011;10743;52.160;20.910;2023-04-03T05:44:43;9.13;;;2.60;;
21170;SDS011;10743;52.160;20.910;2023-04-03T05:47:13;6.40;;;2.20;;
21170;SDS011;10743;52.160;20.910;2023-04-03T05:49:40;7.33;;;2.10;;
21170;SDS011;10743;52.160;20.910;2023-04-03T05:52:29;7.03;;;2.17;;
21170;SDS011;10743;52.160;20.910;2023-04-03T05:55:00;7.17;;;2.37;;
21170;SDS011;10743;52.160;20.910;2023-04-03T05:57:29;7.57;;;2.47;;
21170;SDS011;10743;52.160;20.910;2023-04-03T05:59:57;7.27;;;2.27;;
21170;SDS011;10743;52.160;20.910;2023-04-03T06:02:24;7.23;;;2.10;;
21170;SDS011;10743;52.160;20.910;2023-04-03T06:04:53;9.13;;;2.43;;
21170;SDS011;10743;52.160;20.910;2023-04-03T06:07:21;7.57;;;2.30;;
21170;SDS011;10743;52.160;20.910;2023-04-03T06:09:54;9.50;;;2.37;;
21170;SDS011;10743;52.160;20.910;2023-04-03T06:12:23;8.20;;;2.23;;
21170;SDS011;10743;52.160;20.910;2023-04-03T06:14:50;8.53;;;2.43;;
21170;SDS011;10743;52.160;20.910;2023-04-03T06:17:17;11.67;;;2.63;;
21170;SDS011;10743;52.160;20.910;2023-04-03T06:19:45;4.07;;;1.83;;
21170;SDS011;10743;52.160;20.910;2023-04-03T06:22:13;8.60;;;2.87;;
21170;SDS011;10743;52.160;20.910;2023-04-03T06:24:40;10.10;;;2.90;;
21170;SDS011;10743;52.160;20.910;2023-04-03T06:27:08;12.53;;;3.00;;
21170;SDS011;10743;52.160;20.910;2023-04-03T06:29:37;5.43;;;2.47;;
21170;SDS011;10743;52.160;20.910;2023-04-03T06:32:04;6.50;;;2.20;;
21170;SDS011;10743;52.160;20.910;2023-04-03T06:34:31;8.83;;;2.33;;
21170;SDS011;10743;52.160;20.910;2023-04-03T06:36:58;8.63;;;2.40;;
21170;SDS011;10743;52.160;20.910;2023-04-03T06:39:25;5.47;;;2.13;;
21170;SDS011;10743;52.160;20.910;2023-04-03T06:41:53;4.83;;;2.03;;
21170;SDS011;10743;52.160;20.910;2023-04-03T06:44:36;4.07;;;1.90;;
21170;SDS011;10743;52.160;20.910;2023-04-03T06:47:03;8.07;;;2.20;;
21170;SDS011;10743;52.160;20.910;2023-04-03T06:49:30;7.83;;;2.40;;
21170;SDS011;10743;52.160;20.910;2023-04-03T06:51:58;5.17;;;2.07;;
21170;SDS011;10743;52.160;20.910;2023-04-03T06:54:27;5.80;;;2.20;;
21170;SDS011;10743;52.160;20.910;2023-04-03T06:56:54;7.63;;;2.30;;
21170;SDS011;10743;52.160;20.910;2023-04-03T06:59:21;6.47;;;2.20;;
21170;SDS011;10743;52.160;20.910;2023-04-03T07:01:49;9.27;;;2.33;;
21170;SDS011;10743;52.160;20.910;2023-04-03T07:04:16;7.73;;;2.40;;
21170;SDS011;10743;52.160;20.910;2023-04-03T07:06:44;7.03;;;2.60;;
21170;SDS011;10743;52.160;20.910;2023-04-03T07:09:13;5.90;;;2.00;;
21170;SDS011;10743;52.160;20.910;2023-04-03T07:11:41;5.47;;;2.40;;
21170;SDS011;10743;52.160;20.910;2023-04-03T07:14:08;4.57;;;1.70;;
21170;SDS011;10743;52.160;20.910;2023-04-03T07:16:35;6.10;;;2.30;;
21170;SDS011;10743;52.160;20.910;2023-04-03T07:19:06;6.70;;;2.30;;
21170;SDS011;10743;52.160;20.910;2023-04-03T07:21:35;6.93;;;2.43;;
21170;SDS011;10743;52.160;20.910;2023-04-03T07:24:02;5.27;;;2.47;;
21170;SDS011;10743;52.160;20.910;2023-04-03T07:26:29;6.87;;;2.17;;
21170;SDS011;10743;52.160;20.910;2023-04-03T07:28:56;7.93;;;2.40;;
21170;SDS011;10743;52.160;20.910;2023-04-03T07:31:24;9.03;;;2.33;;
21170;SDS011;10743;52.160;20.910;2023-04-03T07:33:51;4.90;;;1.93;;
21170;SDS011;10743;52.160;20.910;2023-04-03T07:36:19;11.13;;;2.10;;
21170;SDS011;10743;52.160;20.910;2023-04-03T07:38:48;6.00;;;2.20;;
21170;SDS011;10743;52.160;20.910;2023-04-03T07:41:17;9.17;;;2.20;;
21170;SDS011;10743;52.160;20.910;2023-04-03T07:43:48;5.60;;;2.00;;
21170;SDS011;10743;52.160;20.910;2023-04-03T07:46:16;4.70;;;2.13;;
21170;SDS011;10743;52.160;20.910;2023-04-03T07:48:43;6.43;;;2.30;;
21170;SDS011;10743;52.160;20.910;2023-04-03T07:51:11;8.63;;;2.23;;
21170;SDS011;10743;52.160;20.910;2023-04-03T07:53:39;2.70;;;1.67;;
21170;SDS011;10743;52.160;20.910;2023-04-03T07:56:06;7.63;;;2.37;;
21170;SDS011;10743;52.160;20.910;2023-04-03T07:58:34;6.93;;;2.03;;
21170;SDS011;10743;52.160;20.910;2023-04-03T08:01:01;6.43;;;2.07;;
21170;SDS011;10743;52.160;20.910;2023-04-03T08:03:28;8.43;;;2.33;;
21170;SDS011;10743;52.160;20.910;2023-04-03T08:06:00;4.17;;;1.80;;
21170;SDS011;10743;52.160;20.910;2023-04-03T08:08:32;8.57;;;2.27;;
21170;SDS011;10743;52.160;20.910;2023-04-03T08:11:00;5.87;;;2.07;;
21170;SDS011;10743;52.160;20.910;2023-04-03T08:13:29;5.20;;;1.90;;
21170;SDS011;10743;52.160;20.910;2023-04-03T08:15:57;7.30;;;2.10;;
21170;SDS011;10743;52.160;20.910;2023-04-03T08:18:25;6.50;;;2.10;;
21170;SDS011;10743;52.160;20.910;2023-04-03T08:20:52;4.93;;;1.90;;
21170;SDS011;10743;52.160;20.910;2023-04-03T08:23:20;6.60;;;2.07;;
21170;SDS011;10743;52.160;20.910;2023-04-03T08:25:47;4.73;;;1.97;;
21170;SDS011;10743;52.160;20.910;2023-04-03T08:28:14;7.60;;;2.10;;
21170;SDS011;10743;52.160;20.910;2023-04-03T08:30:41;3.60;;;1.73;;
21170;SDS011;10743;52.160;20.910;2023-04-03T08:33:09;3.83;;;1.63;;
21170;SDS011;10743;52.160;20.910;2023-04-03T08:35:40;6.20;;;1.60;;
21170;SDS011;10743;52.160;20.910;2023-04-03T08:38:09;5.30;;;1.83;;
21170;SDS011;10743;52.160;20.910;2023-04-03T08:40:36;5.63;;;2.00;;
21170;SDS011;10743;52.160;20.910;2023-04-03T08:43:26;7.63;;;2.07;;
21170;SDS011;10743;52.160;20.910;2023-04-03T08:46:11;4.90;;;1.90;;
21170;SDS011;10743;52.160;20.910;2023-04-03T08:48:42;5.63;;;1.93;;
21170;SDS011;10743;52.160;20.910;2023-04-03T08:51:14;5.43;;;2.07;;
21170;SDS011;10743;52.160;20.910;2023-04-03T08:54:02;4.30;;;1.77;;
21170;SDS011;10743;52.160;20.910;2023-04-03T08:56:35;4.93;;;2.03;;
21170;SDS011;10743;52.160;20.910;2023-04-03T08:59:07;8.07;;;2.00;;
21170;SDS011;10743;52.160;20.910;2023-04-03T09:01:40;3.33;;;1.73;;
21170;SDS011;10743;52.160;20.910;2023-04-03T09:04:13;4.90;;;1.90;;
21170;SDS011;10743;52.160;20.910;2023-04-03T09:06:45;4.20;;;2.20;;
21170;SDS011;10743;52.160;20.910;2023-04-03T09:20:11;7.40;;;2.00;;
21170;SDS011;10743;52.160;20.910;2023-04-03T09:22:50;4.50;;;2.00;;
21170;SDS011;10743;52.160;20.910;2023-04-03T09:27:52;5.37;;;1.80;;
21170;SDS011;10743;52.160;20.910;2023-04-03T09:30:21;2.97;;;1.60;;
21170;SDS011;10743;52.160;20.910;2023-04-03T09:32:52;4.07;;;1.70;;
21170;SDS011;10743;52.160;20.910;2023-04-03T09:35:24;6.23;;;2.10;;
21170;SDS011;10743;52.160;20.910;2023-04-03T09:45:55;4.03;;;1.70;;
21170;SDS011;10743;52.160;20.910;2023-04-03T09:48:55;3.83;;;1.80;;
21170;SDS011;10743;52.160;20.910;2023-04-03T09:51:35;4.93;;;1.80;;
21170;SDS011;10743;52.160;20.910;2023-04-03T09:57:10;5.43;;;1.83;;
21170;SDS011;10743;52.160;20.910;2023-04-03T09:59:59;3.87;;;1.77;;
21170;SDS011;10743;52.160;20.910;2023-04-03T10:02:40;6.63;;;1.90;;
21170;SDS011;10743;52.160;20.910;2023-04-03T10:10:43;5.27;;;1.87;;
21170;SDS011;10743;52.160;20.910;2023-04-03T10:13:14;4.13;;;1.70;;
21170;SDS011;10743;52.160;20.910;2023-04-03T10:15:51;5.20;;;1.60;;
21170;SDS011;10743;52.160;20.910;2023-04-03T10:18:42;6.23;;;1.90;;
21170;SDS011;10743;52.160;20.910;2023-04-03T10:27:31;5.27;;;1.70;;
21170;SDS011;10743;52.160;20.910;2023-04-03T10:30:28;4.67;;;1.60;;
21170;SDS011;10743;52.160;20.910;2023-04-03T10:39:27;7.30;;;2.10;;
21170;SDS011;10743;52.160;20.910;2023-04-03T10:59:43;4.90;;;1.43;;
21170;SDS011;10743;52.160;20.910;2023-04-03T11:05:54;5.00;;;1.60;;
21170;SDS011;10743;52.160;20.910;2023-04-03T11:10:53;6.90;;;2.00;;
21170;SDS011;10743;52.160;20.910;2023-04-03T11:13:46;8.63;;;1.83;;
21170;SDS011;10743;52.160;20.910;2023-04-03T11:16:26;5.77;;;1.60;;
21170;SDS011;10743;52.160;20.910;2023-04-03T11:19:11;6.53;;;1.90;;
21170;SDS011;10743;52.160;20.910;2023-04-03T11:21:57;6.33;;;1.80;;
21170;SDS011;10743;52.160;20.910;2023-04-03T11:24:37;4.63;;;1.53;;
21170;SDS011;10743;52.160;20.910;2023-04-03T11:27:11;5.17;;;1.73;;
21170;SDS011;10743;52.160;20.910;2023-04-03T11:29:48;3.53;;;1.53;;
21170;SDS011;10743;52.160;20.910;2023-04-03T11:35:19;10.03;;;1.87;;
21170;SDS011;10743;52.160;20.910;2023-04-03T11:37:48;8.37;;;1.97;;
21170;SDS011;10743;52.160;20.910;2023-04-03T11:40:25;10.80;;;4.47;;
21170;SDS011;10743;52.160;20.910;2023-04-03T11:46:01;11.60;;;3.50;;
21170;SDS011;10743;52.160;20.910;2023-04-03T11:50:58;72.57;;;27.83;;
21170;SDS011;10743;52.160;20.910;2023-04-03T11:53:39;9.73;;;1.80;;
21170;SDS011;10743;52.160;20.910;2023-04-03T12:04:27;20.73;;;13.53;;
21170;SDS011;10743;52.160;20.910;2023-04-03T12:06:59;127.90;;;47.07;;
21170;SDS011;10743;52.160;20.910;2023-04-03T12:12:28;156.40;;;48.63;;
21170;SDS011;10743;52.160;20.910;2023-04-03T12:15:20;7.20;;;1.60;;
21170;SDS011;10743;52.160;20.910;2023-04-03T12:21:11;93.67;;;38.87;;
21170;SDS011;10743;52.160;20.910;2023-04-03T12:23:56;136.30;;;47.90;;
21170;SDS011;10743;52.160;20.910;2023-04-03T12:26:48;133.23;;;45.33;;
21170;SDS011;10743;52.160;20.910;2023-04-03T12:41:14;151.27;;;51.37;;
21170;SDS011;10743;52.160;20.910;2023-04-03T12:46:47;140.17;;;45.67;;
21170;SDS011;10743;52.160;20.910;2023-04-03T12:55:02;149.20;;;49.77;;
21170;SDS011;10743;52.160;20.910;2023-04-03T12:57:36;11.80;;;2.13;;
21170;SDS011;10743;52.160;20.910;2023-04-03T13:00:18;7.80;;;1.60;;
21170;SDS011;10743;52.160;20.910;2023-04-03T13:02:47;18.63;;;9.40;;
21170;SDS011;10743;52.160;20.910;2023-04-03T13:05:16;24.10;;;12.90;;
21170;SDS011;10743;52.160;20.910;2023-04-03T13:07:48;8.37;;;1.80;;
21170;SDS011;10743;52.160;20.910;2023-04-03T13:10:20;6.43;;;1.70;;
21170;SDS011;10743;52.160;20.910;2023-04-03T13:12:58;4.63;;;1.50;;
21170;SDS011;10743;52.160;20.910;2023-04-03T13:15:42;6.53;;;1.50;;
21170;SDS011;10743;52.160;20.910;2023-04-03T13:18:23;27.90;;;13.20;;
21170;SDS011;10743;52.160;20.910;2023-04-03T13:20:59;50.93;;;25.50;;
21170;SDS011;10743;52.160;20.910;2023-04-03T13:23:35;50.27;;;28.30;;
21170;SDS011;10743;52.160;20.910;2023-04-03T13:26:05;70.90;;;33.40;;
21170;SDS011;10743;52.160;20.910;2023-04-03T13:28:33;43.40;;;23.63;;
21170;SDS011;10743;52.160;20.910;2023-04-03T13:33:43;10.23;;;1.90;;
21170;SDS011;10743;52.160;20.910;2023-04-03T13:36:40;55.90;;;26.47;;
21170;SDS011;10743;52.160;20.910;2023-04-03T13:39:23;105.47;;;37.80;;
21170;SDS011;10743;52.160;20.910;2023-04-03T13:41:58;102.87;;;35.03;;
21170;SDS011;10743;52.160;20.910;2023-04-03T13:44:43;114.40;;;39.87;;
21170;SDS011;10743;52.160;20.910;2023-04-03T13:49:45;25.57;;;11.27;;
21170;SDS011;10743;52.160;20.910;2023-04-03T13:55:22;12.60;;;2.57;;
21170;SDS011;10743;52.160;20.910;2023-04-03T13:58:00;19.73;;;8.27;;
21170;SDS011;10743;52.160;20.910;2023-04-03T14:00:39;73.67;;;29.37;;
21170;SDS011;10743;52.160;20.910;2023-04-03T14:05:51;14.23;;;2.50;;
21170;SDS011;10743;52.160;20.910;2023-04-03T14:08:20;25.03;;;11.00;;
21170;SDS011;10743;52.160;20.910;2023-04-03T14:11:01;117.70;;;44.30;;
21170;SDS011;10743;52.160;20.910;2023-04-03T14:13:30;142.43;;;48.03;;
21170;SDS011;10743;52.160;20.910;2023-04-03T14:15:58;141.57;;;47.03;;
21170;SDS011;10743;52.160;20.910;2023-04-03T14:18:34;12.67;;;2.53;;
21170;SDS011;10743;52.160;20.910;2023-04-03T14:21:02;131.57;;;46.03;;
21170;SDS011;10743;52.160;20.910;2023-04-03T14:23:30;145.53;;;49.17;;
21170;SDS011;10743;52.160;20.910;2023-04-03T14:25:57;162.93;;;50.80;;
21170;SDS011;10743;52.160;20.910;2023-04-03T14:28:24;158.23;;;51.20;;
21170;SDS011;10743;52.160;20.910;2023-04-03T14:30:51;143.43;;;46.97;;
21170;SDS011;10743;52.160;20.910;2023-04-03T14:33:20;142.67;;;46.33;;
21170;SDS011;10743;52.160;20.910;2023-04-03T14:35:48;157.97;;;50.53;;
21170;SDS011;10743;52.160;20.910;2023-04-03T14:38:25;158.73;;;51.67;;
21170;SDS011;10743;52.160;20.910;2023-04-03T14:40:56;148.23;;;48.40;;
21170;SDS011;10743;52.160;20.910;2023-04-03T14:43:39;96.27;;;33.33;;
21170;SDS011;10743;52.160;20.910;2023-04-03T14:46:11;131.13;;;46.13;;
21170;SDS011;10743;52.160;20.910;2023-04-03T14:49:22;128.23;;;43.57;;
21170;SDS011;10743;52.160;20.910;2023-04-03T14:51:54;13.93;;;2.43;;
21170;SDS011;10743;52.160;20.910;2023-04-03T14:54:23;97.63;;;35.97;;
21170;SDS011;10743;52.160;20.910;2023-04-03T14:56:55;117.47;;;50.10;;
21170;SDS011;10743;52.160;20.910;2023-04-03T14:59:26;5.33;;;1.70;;
21170;SDS011;10743;52.160;20.910;2023-04-03T15:01:54;49.17;;;26.83;;
21170;SDS011;10743;52.160;20.910;2023-04-03T15:04:21;7.43;;;1.70;;
21170;SDS011;10743;52.160;20.910;2023-04-03T15:06:48;99.37;;;42.87;;
21170;SDS011;10743;52.160;20.910;2023-04-03T15:09:23;7.87;;;2.00;;
21170;SDS011;10743;52.160;20.910;2023-04-03T15:11:53;109.43;;;40.77;;
21170;SDS011;10743;52.160;20.910;2023-04-03T15:14:21;165.47;;;52.93;;
21170;SDS011;10743;52.160;20.910;2023-04-03T15:17:06;152.80;;;46.47;;
21170;SDS011;10743;52.160;20.910;2023-04-03T15:19:40;158.40;;;50.27;;
21170;SDS011;10743;52.160;20.910;2023-04-03T15:22:08;130.03;;;40.30;;
21170;SDS011;10743;52.160;20.910;2023-04-03T15:24:41;100.80;;;42.33;;
21170;SDS011;10743;52.160;20.910;2023-04-03T15:27:09;96.00;;;42.87;;
21170;SDS011;10743;52.160;20.910;2023-04-03T15:29:39;14.63;;;3.00;;
21170;SDS011;10743;52.160;20.910;2023-04-03T15:32:07;56.23;;;24.07;;
21170;SDS011;10743;52.160;20.910;2023-04-03T15:34:36;104.03;;;33.80;;
21170;SDS011;10743;52.160;20.910;2023-04-03T15:37:04;9.40;;;2.30;;
21170;SDS011;10743;52.160;20.910;2023-04-03T15:39:31;9.50;;;2.30;;
21170;SDS011;10743;52.160;20.910;2023-04-03T15:41:58;10.63;;;2.40;;
21170;SDS011;10743;52.160;20.910;2023-04-03T15:44:35;10.23;;;2.30;;
21170;SDS011;10743;52.160;20.910;2023-04-03T15:47:02;11.57;;;2.40;;
21170;SDS011;10743;52.160;20.910;2023-04-03T15:49:29;12.17;;;2.60;;
21170;SDS011;10743;52.160;20.910;2023-04-03T15:51:59;9.23;;;2.00;;
21170;SDS011;10743;52.160;20.910;2023-04-03T15:54:26;10.43;;;2.07;;
21170;SDS011;10743;52.160;20.910;2023-04-03T15:56:55;18.87;;;9.57;;
21170;SDS011;10743;52.160;20.910;2023-04-03T15:59:23;24.60;;;10.03;;
21170;SDS011;10743;52.160;20.910;2023-04-03T16:01:50;13.80;;;2.40;;
21170;SDS011;10743;52.160;20.910;2023-04-03T16:04:19;10.30;;;2.40;;
21170;SDS011;10743;52.160;20.910;2023-04-03T16:06:47;104.70;;;43.43;;
21170;SDS011;10743;52.160;20.910;2023-04-03T16:09:15;12.57;;;2.40;;
21170;SDS011;10743;52.160;20.910;2023-04-03T16:11:43;9.17;;;2.23;;
21170;SDS011;10743;52.160;20.910;2023-04-03T16:14:10;25.23;;;12.73;;
21170;SDS011;10743;52.160;20.910;2023-04-03T16:16:38;13.70;;;2.77;;
21170;SDS011;10743;52.160;20.910;2023-04-03T16:19:05;20.53;;;6.00;;
21170;SDS011;10743;52.160;20.910;2023-04-03T16:21:33;9.87;;;2.30;;
21170;SDS011;10743;52.160;20.910;2023-04-03T16:24:00;14.40;;;2.80;;
21170;SDS011;10743;52.160;20.910;2023-04-03T16:26:28;10.80;;;2.57;;
21170;SDS011;10743;52.160;20.910;2023-04-03T16:28:55;10.30;;;2.40;;
21170;SDS011;10743;52.160;20.910;2023-04-03T16:31:22;21.27;;;3.47;;
21170;SDS011;10743;52.160;20.910;2023-04-03T16:33:51;10.63;;;2.40;;
21170;SDS011;10743;52.160;20.910;2023-04-03T16:36:18;12.63;;;2.47;;
21170;SDS011;10743;52.160;20.910;2023-04-03T16:38:45;13.03;;;2.40;;
21170;SDS011;10743;52.160;20.910;2023-04-03T16:41:12;21.37;;;4.00;;
21170;SDS011;10743;52.160;20.910;2023-04-03T16:43:39;53.77;;;7.80;;
21170;SDS011;10743;52.160;20.910;2023-04-03T16:46:11;18.67;;;3.57;;